createdAt,value
2023-05-21T00:02:44.212Z,82.90
2023-05-21T00:07:53.510Z,82.47
2023-05-21T00:13:23.123Z,82.41
2023-05-21T00:18:28.511Z,82.92
2023-05-21T00:23:34.221Z,84.10
2023-05-21T00:28:38.445Z,82.42
2023-05-21T00:33:42.824Z,81.84
2023-05-21T00:38:49.673Z,83.34
2023-05-21T00:43:56.593Z,82.45
2023-05-21T00:49:01.944Z,80.76
2023-05-21T00:54:08.415Z,82.56
2023-05-21T00:59:13.093Z,80.71
2023-05-21T01:04:17.959Z,81.38
2023-05-21T01:09:25.157Z,81.53
2023-05-21T01:14:33.048Z,81.73
2023-05-21T01:19:39.886Z,80.17
2023-05-21T01:24:47.996Z,81.28
2023-05-21T01:29:52.360Z,84.01
2023-05-21T01:35:03.630Z,83.53
2023-05-21T01:40:16.419Z,82.01
2023-05-21T01:45:24.365Z,82.70
2023-05-21T01:50:28.986Z,82.27
2023-05-21T01:55:39.648Z,82.40
2023-05-21T02:00:45.629Z,82.55
2023-05-21T02:05:52.176Z,83.27
2023-05-21T02:10:59.089Z,84.48
2023-05-21T02:16:04.304Z,85.02
2023-05-21T02:21:09.501Z,84.13
2023-05-21T02:26:15.227Z,84.86
2023-05-21T02:31:20.005Z,88.12
2023-05-21T02:36:25.464Z,86.56
2023-05-21T02:41:31.331Z,86.26
2023-05-21T02:46:35.983Z,85.94
2023-05-21T02:51:40.514Z,84.21
2023-05-21T02:56:46.314Z,86.76
2023-05-21T03:01:50.910Z,85.74
2023-05-21T03:06:55.530Z,86.23
2023-05-21T03:12:02.518Z,86.72
2023-05-21T03:17:08.240Z,86.31
2023-05-21T03:22:13.716Z,85.90
2023-05-21T03:27:19.376Z,85.09
2023-05-21T03:32:26.070Z,81.11
2023-05-21T03:37:32.722Z,70.08
2023-05-21T03:42:39.096Z,61.15
2023-05-21T03:47:45.842Z,62.48
2023-05-21T03:52:51.166Z,61.73
2023-05-21T03:57:56.827Z,58.89
2023-05-21T04:03:03.782Z,55.41
2023-05-21T04:08:08.743Z,51.60
2023-05-21T04:13:15.547Z,50.33
2023-05-21T04:18:22.831Z,50.62
2023-05-21T04:23:27.937Z,48.33
2023-05-21T04:28:36.861Z,49.27
2023-05-21T04:33:46.453Z,49.11
2023-05-21T04:38:51.029Z,49.35
2023-05-21T04:43:56.587Z,48.47
2023-05-21T04:49:06.402Z,48.50
2023-05-21T04:54:12.076Z,48.94
2023-05-21T04:59:19.027Z,48.13
2023-05-21T05:04:25.241Z,47.84
2023-05-21T05:09:30.433Z,47.26
2023-05-21T05:14:36.340Z,47.98
2023-05-21T05:19:42.012Z,48.54
2023-05-21T05:24:46.363Z,49.40
2023-05-21T05:29:52.374Z,49.21
2023-05-21T05:34:57.536Z,47.18
2023-05-21T05:40:03.450Z,47.15
2023-05-21T05:45:11.261Z,48.49
2023-05-21T05:50:16.962Z,48.35
2023-05-21T05:55:22.151Z,47.70
2023-05-21T06:00:27.856Z,47.40
2023-05-21T06:05:32.810Z,48.03
2023-05-21T06:10:36.953Z,48.17
2023-05-21T06:15:43.474Z,46.86
2023-05-21T06:20:49.004Z,47.71
2023-05-21T06:25:54.813Z,45.89
2023-05-21T06:31:05.883Z,45.22
2023-05-21T06:36:12.456Z,45.74
2023-05-21T06:41:20.096Z,46.01
2023-05-21T06:46:46.105Z,46.44
2023-05-21T06:51:50.722Z,45.57
2023-05-21T06:56:55.982Z,45.10
2023-05-21T07:02:04.611Z,44.19
2023-05-21T07:07:10.917Z,44.14
2023-05-21T07:12:15.444Z,43.42
2023-05-21T07:17:21.133Z,42.44
2023-05-21T07:22:28.133Z,42.18
2023-05-21T07:27:32.879Z,42.78
2023-05-21T07:32:40.249Z,40.91
2023-05-21T07:37:44.878Z,41.57
2023-05-21T07:42:49.615Z,41.57
2023-05-21T07:47:57.931Z,41.64
2023-05-21T07:53:03.540Z,41.91
2023-05-21T07:58:09.395Z,43.33
2023-05-21T08:03:17.764Z,42.89
2023-05-21T08:08:27.575Z,43.35
2023-05-21T08:13:33.616Z,40.85
2023-05-21T08:18:43.966Z,41.06
2023-05-21T08:23:48.237Z,38.39
2023-05-21T08:28:52.792Z,37.21
2023-05-21T08:33:58.900Z,35.88
2023-05-21T08:39:16.262Z,36.46
2023-05-21T08:44:22.774Z,37.01
2023-05-21T08:49:35.027Z,36.82
2023-05-21T08:54:39.956Z,37.61
2023-05-21T08:59:45.230Z,36.89
2023-05-21T09:05:03.624Z,36.10
2023-05-21T09:10:11.279Z,37.21
2023-05-21T09:15:16.065Z,36.55
2023-05-21T09:20:26.709Z,36.52
2023-05-21T09:25:40.524Z,36.22
2023-05-21T09:30:51.135Z,35.88
2023-05-21T09:35:57.619Z,35.86
2023-05-21T09:41:06.731Z,35.44
2023-05-21T09:46:12.622Z,35.41
2023-05-21T09:51:20.549Z,34.50
2023-05-21T09:56:26.556Z,33.52
2023-05-21T10:01:33.149Z,33.40
2023-05-21T10:06:43.257Z,33.91
2023-05-21T10:11:51.136Z,31.52
2023-05-21T10:16:58.437Z,33.50
2023-05-21T10:22:05.651Z,33.08
2023-05-21T10:27:11.685Z,31.74
2023-05-21T10:32:17.785Z,31.94
2023-05-21T10:37:26.722Z,32.20
2023-05-21T10:42:58.702Z,32.33
2023-05-21T10:48:29.043Z,31.32
2023-05-21T10:53:49.480Z,32.86
2023-05-21T10:59:22.493Z,33.12
2023-05-21T11:04:28.942Z,33.10
2023-05-21T11:09:34.842Z,32.58
2023-05-21T11:14:40.720Z,33.80
2023-05-21T11:19:47.661Z,32.54
2023-05-21T11:24:55.042Z,32.35
2023-05-21T11:29:59.393Z,31.96
2023-05-21T11:35:04.565Z,30.22
2023-05-21T11:40:22.567Z,30.26
2023-05-21T11:45:32.182Z,30.07
2023-05-21T11:50:37.628Z,31.05
2023-05-21T11:55:47.571Z,28.79
2023-05-21T12:00:53.377Z,30.13
2023-05-21T12:06:06.953Z,30.26
2023-05-21T12:11:13.235Z,29.75
2023-05-21T12:16:17.733Z,29.64
2023-05-21T12:21:21.956Z,31.60
2023-05-21T12:26:29.434Z,31.40
2023-05-21T12:31:35.283Z,32.77
2023-05-21T12:36:46.324Z,33.77
2023-05-21T12:41:55.620Z,33.67
2023-05-21T12:47:02.847Z,34.52
2023-05-21T12:52:10.798Z,34.18
2023-05-21T12:57:23.452Z,33.71
2023-05-21T13:02:29.279Z,32.86
2023-05-21T13:07:36.138Z,33.83
2023-05-21T13:12:44.071Z,35.67
2023-05-21T13:17:50.552Z,35.21
2023-05-21T13:22:56.285Z,36.60
2023-05-21T13:28:05.132Z,38.24
2023-05-21T13:33:09.350Z,38.13
2023-05-21T13:38:13.592Z,39.44
2023-05-21T13:43:20.533Z,39.04
2023-05-21T13:48:25.207Z,38.88
2023-05-21T13:53:32.873Z,36.94
2023-05-21T13:58:40.723Z,36.78
2023-05-21T14:03:45.028Z,38.72
2023-05-21T14:08:49.413Z,40.23
2023-05-21T14:13:55.022Z,40.11
2023-05-21T14:19:00.041Z,40.58
2023-05-21T14:24:07.064Z,45.16
2023-05-21T14:29:12.583Z,45.94
2023-05-21T14:34:18.555Z,47.06
2023-05-21T14:39:23.137Z,47.06
2023-05-21T14:44:29.232Z,47.36
2023-05-21T14:49:33.931Z,46.83
2023-05-21T14:54:39.162Z,48.24
2023-05-21T14:59:45.206Z,47.75
2023-05-21T15:04:49.428Z,47.97
2023-05-21T15:09:53.746Z,48.60
2023-05-21T15:14:59.441Z,50.92
2023-05-21T15:20:06.385Z,51.28
2023-05-21T15:25:12.145Z,53.00
2023-05-21T15:30:18.680Z,53.59
2023-05-21T15:35:23.132Z,53.88
2023-05-21T15:40:27.577Z,54.22
2023-05-21T15:45:33.434Z,54.38
2023-05-21T15:50:38.671Z,55.17
2023-05-21T15:55:44.882Z,56.17
2023-05-21T16:00:53.912Z,54.91
2023-05-21T16:06:01.163Z,52.91
2023-05-21T16:11:05.612Z,53.26
2023-05-21T16:16:11.599Z,52.22
2023-05-21T16:21:17.799Z,52.59
2023-05-21T16:26:23.176Z,54.30
2023-05-21T16:31:29.801Z,54.66
2023-05-21T16:36:33.909Z,51.28
2023-05-21T16:41:38.152Z,50.92
2023-05-21T16:46:45.395Z,52.11
2023-05-21T16:51:49.753Z,50.58
2023-05-21T16:56:54.694Z,51.29
2023-05-21T17:02:00.186Z,52.73
2023-05-21T17:07:05.006Z,53.80
2023-05-21T17:12:09.614Z,53.84
2023-05-21T17:17:16.787Z,53.83
2023-05-21T17:22:24.276Z,54.58
2023-05-21T17:27:28.641Z,54.31
2023-05-21T17:32:36.083Z,55.19
2023-05-21T17:37:42.860Z,55.50
2023-05-21T17:42:47.409Z,56.11
2023-05-21T17:47:53.448Z,58.15
2023-05-21T17:53:01.459Z,59.58
2023-05-21T17:58:07.047Z,59.01
2023-05-21T18:03:14.714Z,60.10
2023-05-21T18:08:19.122Z,60.49
2023-05-21T18:13:23.365Z,60.83
2023-05-21T18:18:29.180Z,63.05
2023-05-21T18:23:33.309Z,64.01
2023-05-21T18:28:37.618Z,64.71
2023-05-21T18:33:44.296Z,64.51
2023-05-21T18:38:48.988Z,66.21
2023-05-21T18:43:53.623Z,66.69
2023-05-21T18:49:00.944Z,66.78
2023-05-21T18:54:05.330Z,67.05
2023-05-21T18:59:11.155Z,67.91
2023-05-21T19:04:41.505Z,67.45
2023-05-21T19:10:37.520Z,68.53
2023-05-21T19:45:26.035Z,71.31
2023-05-21T21:50:53.983Z,69.67
2023-05-21T21:55:58.565Z,69.94
2023-05-21T22:01:03.027Z,69.64
2023-05-21T22:06:09.444Z,68.30
2023-05-21T22:11:13.735Z,67.43
2023-05-21T22:16:18.964Z,68.39
2023-05-21T22:21:27.303Z,68.31
2023-05-21T22:26:31.534Z,68.09
2023-05-21T22:31:36.332Z,67.37
2023-05-21T22:36:44.847Z,66.23
2023-05-21T22:41:48.952Z,66.49
2023-05-21T22:46:56.601Z,66.38
2023-05-21T22:52:05.393Z,67.29
2023-05-21T22:57:09.910Z,65.88
2023-05-21T23:02:15.023Z,59.78
2023-05-21T23:07:21.144Z,57.17
2023-05-21T23:12:25.430Z,56.54
2023-05-21T23:17:29.578Z,56.01
2023-05-21T23:22:35.547Z,54.86
2023-05-21T23:27:40.130Z,54.83
2023-05-21T23:32:44.314Z,55.27
2023-05-21T23:37:50.887Z,55.40
2023-05-21T23:42:54.998Z,52.84
2023-05-21T23:47:59.138Z,52.66
2023-05-21T23:53:06.160Z,52.21
2023-05-21T23:58:10.352Z,52.59
